createdAt,value
2022-12-24T00:01:06.135Z,9.50
2022-12-24T00:03:33.426Z,9.50
2022-12-24T00:06:06.723Z,9.50
2022-12-24T00:08:33.369Z,9.40
2022-12-24T00:11:00.158Z,9.40
2022-12-24T00:13:26.798Z,9.40
2022-12-24T00:15:53.405Z,9.40
2022-12-24T00:18:30.283Z,9.40
2022-12-24T00:20:56.956Z,9.40
2022-12-24T00:23:23.609Z,9.30
2022-12-24T00:25:50.319Z,9.30
2022-12-24T00:28:17.104Z,9.30
2022-12-24T00:30:43.792Z,9.30
2022-12-24T00:33:10.532Z,9.30
2022-12-24T00:35:37.646Z,9.30
2022-12-24T00:38:04.451Z,9.30
2022-12-24T00:40:33.764Z,9.30
2022-12-24T00:43:00.441Z,9.30
2022-12-24T00:45:27.063Z,9.30
2022-12-24T00:47:53.930Z,9.30
2022-12-24T00:50:20.604Z,9.30
2022-12-24T00:52:47.235Z,9.30
2022-12-24T00:55:13.899Z,9.30
2022-12-24T00:57:40.573Z,9.20
2022-12-24T01:00:07.959Z,9.20
2022-12-24T01:02:34.739Z,9.20
2022-12-24T01:05:04.222Z,9.20
2022-12-24T01:07:30.854Z,9.20
2022-12-24T01:09:57.575Z,9.20
2022-12-24T01:12:24.225Z,9.30
2022-12-24T01:14:51.061Z,9.30
2022-12-24T01:17:17.693Z,9.40
2022-12-24T01:19:44.292Z,9.40
2022-12-24T01:22:10.956Z,9.50
2022-12-24T01:24:39.732Z,9.50
2022-12-24T01:27:06.350Z,9.60
2022-12-24T01:29:32.963Z,9.60
2022-12-24T01:31:59.644Z,9.60
2022-12-24T01:34:29.288Z,9.60
2022-12-24T01:36:55.959Z,9.70
2022-12-24T01:39:22.609Z,9.70
2022-12-24T01:41:50.368Z,9.70
2022-12-24T01:44:22.640Z,9.70
2022-12-24T01:46:50.413Z,9.70
2022-12-24T01:49:18.547Z,9.70
2022-12-24T01:52:13.341Z,9.70
2022-12-24T01:54:43.460Z,9.70
2022-12-24T01:57:39.520Z,9.60
2022-12-24T02:00:09.093Z,9.60
2022-12-24T02:02:36.253Z,9.70
2022-12-24T02:05:11.157Z,9.70
2022-12-24T02:07:37.815Z,9.70
2022-12-24T02:10:04.927Z,9.70
2022-12-24T02:12:32.636Z,9.70
2022-12-24T02:15:01.515Z,9.80
2022-12-24T02:18:00.900Z,9.80
2022-12-24T02:20:30.600Z,9.80
2022-12-24T02:23:03.001Z,9.80
2022-12-24T02:25:47.890Z,9.90
2022-12-24T02:28:37.976Z,9.90
2022-12-24T02:31:06.437Z,9.90
2022-12-24T02:33:39.636Z,9.90
2022-12-24T02:36:29.872Z,9.90
2022-12-24T02:39:06.354Z,9.90
2022-12-24T02:41:39.255Z,9.90
2022-12-24T02:44:05.830Z,10.00
2022-12-24T02:46:32.568Z,10.00
2022-12-24T02:48:59.303Z,10.00
2022-12-24T02:51:25.951Z,10.00
2022-12-24T02:53:52.641Z,10.10
2022-12-24T02:56:41.509Z,10.10
2022-12-24T02:59:08.295Z,10.10
2022-12-24T03:01:57.013Z,10.10
2022-12-24T03:04:29.494Z,10.10
2022-12-24T03:06:57.811Z,10.10
2022-12-24T03:09:31.217Z,10.10
2022-12-24T03:12:34.662Z,10.10
2022-12-24T03:15:01.517Z,10.10
2022-12-24T03:17:28.222Z,10.10
2022-12-24T03:19:54.938Z,10.10
2022-12-24T03:22:21.613Z,10.10
2022-12-24T03:24:48.259Z,10.00
2022-12-24T03:27:15.047Z,10.10
2022-12-24T03:29:41.936Z,10.10
2022-12-24T03:32:08.537Z,10.10
2022-12-24T03:34:35.170Z,10.10
2022-12-24T03:37:01.819Z,10.10
2022-12-24T03:39:28.471Z,10.10
2022-12-24T03:41:55.067Z,10.10
2022-12-24T03:44:21.797Z,10.10
2022-12-24T03:46:48.411Z,10.20
2022-12-24T03:49:15.016Z,10.10
2022-12-24T03:51:41.650Z,10.20
2022-12-24T03:54:08.250Z,10.20
2022-12-24T03:56:34.952Z,10.20
2022-12-24T03:59:01.632Z,10.20
2022-12-24T04:01:28.399Z,10.20
2022-12-24T04:03:55.109Z,10.20
2022-12-24T04:06:21.822Z,10.30
2022-12-24T04:08:48.493Z,10.20
2022-12-24T04:11:15.917Z,10.20
2022-12-24T04:13:42.679Z,10.20
2022-12-24T04:16:11.497Z,10.10
2022-12-24T04:18:38.716Z,10.20
2022-12-24T04:21:06.696Z,10.10
2022-12-24T04:23:34.538Z,10.10
2022-12-24T04:26:02.259Z,10.10
2022-12-24T04:28:29.774Z,10.10
2022-12-24T04:31:03.769Z,10.10
2022-12-24T04:33:30.550Z,10.10
2022-12-24T04:36:00.843Z,10.10
2022-12-24T04:38:27.842Z,10.10
2022-12-24T04:41:23.317Z,10.10
2022-12-24T04:43:52.203Z,10.10
2022-12-24T04:46:20.727Z,10.10
2022-12-24T04:48:48.488Z,10.00
2022-12-24T04:51:15.374Z,10.00
2022-12-24T04:53:42.221Z,10.00
2022-12-24T04:56:16.589Z,10.00
2022-12-24T04:58:43.412Z,10.10
2022-12-24T05:01:13.365Z,10.10
2022-12-24T05:03:40.099Z,10.10
2022-12-24T05:06:09.330Z,10.10
2022-12-24T05:08:36.069Z,10.10
2022-12-24T05:11:02.835Z,10.10
2022-12-24T05:13:37.714Z,10.10
2022-12-24T05:16:09.564Z,10.10
2022-12-24T05:18:36.416Z,10.10
2022-12-24T05:21:03.107Z,10.10
2022-12-24T05:23:29.776Z,10.10
2022-12-24T05:25:56.426Z,10.10
2022-12-24T05:28:23.676Z,10.00
2022-12-24T05:30:50.415Z,10.00
2022-12-24T05:33:17.209Z,10.00
2022-12-24T05:35:43.811Z,10.00
2022-12-24T05:38:10.406Z,10.00
2022-12-24T05:40:37.010Z,10.00
2022-12-24T05:43:03.652Z,10.00
2022-12-24T05:45:30.329Z,10.00
2022-12-24T05:47:56.989Z,10.00
2022-12-24T05:50:23.616Z,10.00
2022-12-24T05:52:50.301Z,10.00
2022-12-24T05:55:16.934Z,10.00
2022-12-24T05:57:43.587Z,10.00
2022-12-24T06:00:10.671Z,10.00
2022-12-24T06:02:37.423Z,10.00
2022-12-24T06:05:04.407Z,9.90
2022-12-24T06:07:31.147Z,9.80
2022-12-24T06:09:57.740Z,9.80
2022-12-24T06:12:24.453Z,9.70
2022-12-24T06:14:51.132Z,9.70
2022-12-24T06:17:17.792Z,9.60
2022-12-24T06:19:44.485Z,9.60
2022-12-24T06:22:11.127Z,9.60
2022-12-24T06:24:37.734Z,9.50
2022-12-24T06:27:06.956Z,9.50
2022-12-24T06:29:36.248Z,9.50
2022-12-24T06:32:02.982Z,9.50
2022-12-24T06:34:29.721Z,9.40
2022-12-24T06:36:58.979Z,9.50
2022-12-24T06:39:25.609Z,9.50
2022-12-24T06:42:13.294Z,9.50
2022-12-24T06:45:05.547Z,9.60
2022-12-24T06:47:36.786Z,9.60
2022-12-24T06:50:10.545Z,9.70
2022-12-24T06:52:57.825Z,9.70
2022-12-24T06:55:45.053Z,9.70
2022-12-24T06:58:11.736Z,9.80
2022-12-24T07:00:38.630Z,9.70
2022-12-24T07:03:05.284Z,9.70
2022-12-24T07:05:40.827Z,9.70
2022-12-24T07:08:08.153Z,9.70
2022-12-24T07:10:34.879Z,9.60
2022-12-24T07:13:01.671Z,9.60
2022-12-24T07:15:33.905Z,9.60
2022-12-24T07:18:00.516Z,9.60
2022-12-24T07:20:33.263Z,9.60
2022-12-24T07:23:07.245Z,9.60
2022-12-24T07:25:33.924Z,9.60
2022-12-24T07:28:03.489Z,9.60
2022-12-24T07:30:30.125Z,9.60
2022-12-24T07:32:56.738Z,9.60
2022-12-24T07:35:23.403Z,9.60
2022-12-24T07:37:50.027Z,9.60
2022-12-24T07:40:16.739Z,9.60
2022-12-24T07:42:44.249Z,9.60
2022-12-24T07:45:12.093Z,9.70
2022-12-24T07:47:38.685Z,9.70
2022-12-24T07:50:06.091Z,9.70
2022-12-24T07:52:32.768Z,9.80
2022-12-24T07:54:59.418Z,9.80
2022-12-24T07:57:26.290Z,9.80
2022-12-24T07:59:53.064Z,9.80
2022-12-24T08:02:19.809Z,9.90
2022-12-24T08:04:46.653Z,9.90
2022-12-24T08:07:13.361Z,9.90
2022-12-24T08:09:40.105Z,9.90
2022-12-24T08:12:06.941Z,9.90
2022-12-24T08:14:33.539Z,9.90
2022-12-24T08:17:00.149Z,9.90
2022-12-24T08:19:26.783Z,9.90
2022-12-24T08:21:53.424Z,9.90
2022-12-24T08:24:20.035Z,9.90
2022-12-24T08:26:46.628Z,10.00
2022-12-24T08:29:15.667Z,10.00
2022-12-24T08:31:42.890Z,10.00
2022-12-24T08:34:10.963Z,10.00
2022-12-24T08:36:37.674Z,10.00
2022-12-24T08:39:04.693Z,10.00
2022-12-24T08:41:31.756Z,10.00
2022-12-24T08:43:58.480Z,10.00
2022-12-24T08:46:25.165Z,10.00
2022-12-24T08:48:51.822Z,10.00
2022-12-24T08:51:18.545Z,10.00
2022-12-24T08:53:45.669Z,10.00
2022-12-24T08:56:12.436Z,10.00
2022-12-24T08:58:39.146Z,10.00
2022-12-24T09:01:13.197Z,10.10
2022-12-24T09:03:40.175Z,10.10
2022-12-24T09:06:07.546Z,10.00
2022-12-24T09:08:34.228Z,10.10
2022-12-24T09:11:11.939Z,10.10
2022-12-24T09:13:38.568Z,10.10
2022-12-24T09:16:05.708Z,10.10
2022-12-24T09:18:33.498Z,10.20
2022-12-24T09:21:05.728Z,10.20
2022-12-24T09:23:32.420Z,10.20
2022-12-24T09:25:59.121Z,10.20
2022-12-24T09:28:25.961Z,10.20
2022-12-24T09:30:59.628Z,10.30
2022-12-24T09:33:27.242Z,10.30
2022-12-24T09:35:54.054Z,10.30
2022-12-24T09:38:21.203Z,10.30
2022-12-24T09:40:47.949Z,10.40
2022-12-24T09:43:24.864Z,10.40
2022-12-24T09:46:21.848Z,10.40
2022-12-24T09:48:51.283Z,10.40
2022-12-24T09:51:45.675Z,10.40
2022-12-24T09:54:49.657Z,10.40
2022-12-24T09:57:30.787Z,10.40
2022-12-24T09:59:57.650Z,10.40
2022-12-24T10:02:24.371Z,10.40
2022-12-24T10:04:51.394Z,10.40
2022-12-24T10:07:42.628Z,10.40
2022-12-24T10:10:24.550Z,10.50
2022-12-24T10:12:57.098Z,10.50
2022-12-24T10:15:35.633Z,10.50
2022-12-24T10:18:28.976Z,10.60
2022-12-24T10:21:13.412Z,10.90
2022-12-24T10:24:06.459Z,11.40
2022-12-24T10:26:51.316Z,11.80
2022-12-24T10:29:20.268Z,12.00
2022-12-24T10:32:07.528Z,12.20
2022-12-24T10:34:46.145Z,12.20
2022-12-24T10:37:17.741Z,12.10
2022-12-24T10:39:44.399Z,11.90
2022-12-24T10:42:11.125Z,11.80
2022-12-24T10:44:37.768Z,11.70
2022-12-24T10:47:05.714Z,11.60
2022-12-24T10:49:34.244Z,11.70
2022-12-24T10:52:05.523Z,11.90
2022-12-24T10:54:32.360Z,12.20
2022-12-24T10:57:00.683Z,12.40
2022-12-24T10:59:29.269Z,12.40
2022-12-24T11:01:59.516Z,12.20
2022-12-24T11:04:28.112Z,12.20
2022-12-24T11:07:02.527Z,12.30
2022-12-24T11:09:57.168Z,12.60
2022-12-24T11:12:25.960Z,12.80
2022-12-24T11:15:05.876Z,12.90
2022-12-24T11:17:32.639Z,12.90
2022-12-24T11:20:00.902Z,12.70
2022-12-24T11:22:29.447Z,12.60
2022-12-24T11:25:30.519Z,12.50
2022-12-24T11:27:57.827Z,12.50
2022-12-24T11:30:30.882Z,12.50
2022-12-24T11:33:00.555Z,12.40
2022-12-24T11:35:27.264Z,12.40
2022-12-24T11:38:03.283Z,12.30
2022-12-24T11:40:39.017Z,12.40
2022-12-24T11:43:12.707Z,12.50
2022-12-24T11:45:45.600Z,12.70
2022-12-24T11:48:32.368Z,12.80
2022-12-24T11:51:06.741Z,12.80
2022-12-24T11:53:38.418Z,12.70
2022-12-24T11:56:29.932Z,12.60
2022-12-24T11:59:21.986Z,12.40
2022-12-24T12:02:00.898Z,12.40
2022-12-24T12:04:33.322Z,12.50
2022-12-24T12:07:21.007Z,12.70
2022-12-24T12:10:08.337Z,12.70
2022-12-24T12:12:38.423Z,12.60
2022-12-24T12:15:17.573Z,12.50
2022-12-24T12:17:54.008Z,12.40
2022-12-24T12:20:27.586Z,12.30
2022-12-24T12:23:00.559Z,12.20
2022-12-24T12:25:43.216Z,12.20
2022-12-24T12:28:17.608Z,12.20
2022-12-24T12:30:44.383Z,12.30
2022-12-24T12:33:22.680Z,12.40
2022-12-24T12:35:49.923Z,12.60
2022-12-24T12:38:23.943Z,12.70
2022-12-24T12:41:11.933Z,12.70
2022-12-24T12:44:04.703Z,12.70
2022-12-24T12:46:43.775Z,12.60
2022-12-24T12:49:21.249Z,12.60
2022-12-24T12:52:06.448Z,12.60
2022-12-24T12:54:52.874Z,12.60
2022-12-24T12:57:20.945Z,12.60
2022-12-24T12:59:55.789Z,12.60
2022-12-24T13:02:55.960Z,12.60
2022-12-24T13:05:31.499Z,12.50
2022-12-24T13:08:19.535Z,12.50
2022-12-24T13:11:06.415Z,12.40
2022-12-24T13:13:40.402Z,12.40
2022-12-24T13:16:19.109Z,12.30
2022-12-24T13:19:03.603Z,12.20
2022-12-24T13:21:30.483Z,12.20
2022-12-24T13:24:18.967Z,12.20
2022-12-24T13:27:06.058Z,12.30
2022-12-24T13:29:35.989Z,12.30
2022-12-24T13:32:21.270Z,12.30
2022-12-24T13:34:52.724Z,12.30
2022-12-24T13:37:31.246Z,12.30
2022-12-24T13:40:23.365Z,12.30
2022-12-24T13:42:58.952Z,12.30
2022-12-24T13:45:31.896Z,12.20
2022-12-24T13:48:28.036Z,12.10
2022-12-24T13:50:56.783Z,12.10
2022-12-24T13:53:26.581Z,12.10
2022-12-24T13:56:01.453Z,12.10
2022-12-24T13:58:28.083Z,12.20
2022-12-24T14:00:56.957Z,12.20
2022-12-24T14:03:27.876Z,12.20
2022-12-24T14:05:59.675Z,12.10
2022-12-24T14:08:32.252Z,12.10
2022-12-24T14:11:06.883Z,12.00
2022-12-24T14:13:39.687Z,12.00
2022-12-24T14:16:25.310Z,11.90
2022-12-24T14:19:05.335Z,11.80
2022-12-24T14:21:34.313Z,11.80
2022-12-24T14:24:11.306Z,11.70
2022-12-24T14:26:45.952Z,11.60
2022-12-24T14:29:27.727Z,11.50
2022-12-24T14:31:56.991Z,11.50
2022-12-24T14:34:23.963Z,11.40
2022-12-24T14:36:51.751Z,11.40
2022-12-24T14:39:24.517Z,11.40
2022-12-24T14:42:13.004Z,11.40
2022-12-24T14:45:10.814Z,11.30
2022-12-24T14:48:00.946Z,11.30
2022-12-24T14:50:54.764Z,11.30
2022-12-24T14:53:30.033Z,11.30
2022-12-24T14:55:57.311Z,11.30
2022-12-24T14:58:27.850Z,11.30
2022-12-24T15:00:59.300Z,11.30
2022-12-24T15:03:28.428Z,11.30
2022-12-24T15:06:04.007Z,11.20
2022-12-24T15:08:41.678Z,11.10
2022-12-24T15:11:09.616Z,11.00
2022-12-24T15:13:42.755Z,10.90
2022-12-24T15:16:11.355Z,10.90
2022-12-24T15:18:49.498Z,10.80
2022-12-24T15:21:20.033Z,10.70
2022-12-24T15:23:50.961Z,10.70
2022-12-24T15:26:24.222Z,10.70
2022-12-24T15:28:53.028Z,10.60
2022-12-24T15:31:24.264Z,10.50
2022-12-24T15:33:52.520Z,10.50
2022-12-24T15:36:35.329Z,10.50
2022-12-24T15:39:06.923Z,10.40
2022-12-24T15:41:41.579Z,10.40
2022-12-24T15:44:08.254Z,10.40
2022-12-24T15:46:35.159Z,10.30
2022-12-24T15:49:01.942Z,10.30
2022-12-24T15:51:33.614Z,10.30
2022-12-24T15:54:06.701Z,10.30
2022-12-24T15:56:38.379Z,10.30
2022-12-24T15:59:17.177Z,10.20
2022-12-24T16:01:44.709Z,10.20
2022-12-24T16:04:16.497Z,10.20
2022-12-24T16:06:54.089Z,10.10
2022-12-24T16:09:36.698Z,10.10
2022-12-24T16:12:04.019Z,10.10
2022-12-24T16:14:31.392Z,10.00
2022-12-24T16:16:58.477Z,10.00
2022-12-24T16:19:34.238Z,10.00
2022-12-24T16:22:04.638Z,9.90
2022-12-24T16:24:31.378Z,9.90
2022-12-24T16:27:02.412Z,9.90
2022-12-24T16:29:29.315Z,9.90
2022-12-24T16:31:58.160Z,9.90
2022-12-24T16:34:29.988Z,9.90
2022-12-24T16:37:00.196Z,9.90
2022-12-24T16:39:31.144Z,9.90
2022-12-24T16:42:01.262Z,9.90
2022-12-24T16:44:28.312Z,9.90
2022-12-24T16:46:56.777Z,9.80
2022-12-24T16:49:23.531Z,9.80
2022-12-24T16:51:50.569Z,9.80
2022-12-24T16:54:17.262Z,9.80
2022-12-24T16:56:44.477Z,9.90
2022-12-24T16:59:21.682Z,9.80
2022-12-24T17:01:48.537Z,9.90
2022-12-24T17:04:15.582Z,9.90
2022-12-24T17:06:42.274Z,9.90
2022-12-24T17:09:09.376Z,9.90
2022-12-24T17:11:36.187Z,9.90
2022-12-24T17:14:08.163Z,9.90
2022-12-24T17:16:35.308Z,9.90
2022-12-24T17:19:01.968Z,9.80
2022-12-24T17:21:28.596Z,9.80
2022-12-24T17:23:57.564Z,9.80
2022-12-24T17:26:24.163Z,9.80
2022-12-24T17:28:53.791Z,9.70
2022-12-24T17:31:20.478Z,9.70
2022-12-24T17:33:49.332Z,9.60
2022-12-24T17:36:16.309Z,9.60
2022-12-24T17:38:42.954Z,9.60
2022-12-24T17:41:14.449Z,9.60
2022-12-24T17:43:41.223Z,9.60
2022-12-24T17:46:09.212Z,9.60
2022-12-24T17:48:35.971Z,9.60
2022-12-24T17:51:09.465Z,9.50
2022-12-24T17:53:40.300Z,9.50
2022-12-24T17:56:21.089Z,9.50
2022-12-24T17:58:47.780Z,9.50
2022-12-24T18:01:16.862Z,9.60
2022-12-24T18:03:44.112Z,9.60
2022-12-24T18:06:11.218Z,9.60
2022-12-24T18:08:38.033Z,9.60
2022-12-24T18:11:15.297Z,9.60
2022-12-24T18:13:42.158Z,9.60
2022-12-24T18:16:15.720Z,9.60
2022-12-24T18:18:42.547Z,9.60
2022-12-24T18:21:09.483Z,9.50
2022-12-24T18:23:36.262Z,9.50
2022-12-24T18:26:04.095Z,9.50
2022-12-24T18:28:30.785Z,9.50
2022-12-24T18:31:01.650Z,9.50
2022-12-24T18:33:28.836Z,9.50
2022-12-24T18:35:58.105Z,9.40
2022-12-24T18:38:24.748Z,9.40
2022-12-24T18:40:51.516Z,9.40
2022-12-24T18:43:18.336Z,9.30
2022-12-24T18:45:45.731Z,9.30
2022-12-24T18:48:12.434Z,9.20
2022-12-24T18:50:40.534Z,9.20
2022-12-24T18:53:07.532Z,9.10
2022-12-24T18:55:35.202Z,9.10
2022-12-24T18:58:01.873Z,9.00
2022-12-24T19:00:28.750Z,9.00
2022-12-24T19:02:56.092Z,9.00
2022-12-24T19:05:23.014Z,9.00
2022-12-24T19:07:52.499Z,9.00
2022-12-24T19:10:19.396Z,9.00
2022-12-24T19:12:46.061Z,9.00
2022-12-24T19:15:12.824Z,9.00
2022-12-24T19:17:39.574Z,9.00
2022-12-24T19:20:07.082Z,8.90
2022-12-24T19:22:35.562Z,8.90
2022-12-24T19:25:02.317Z,8.90
2022-12-24T19:27:29.082Z,9.00
2022-12-24T19:29:55.958Z,9.00
2022-12-24T19:32:22.835Z,9.10
2022-12-24T19:34:49.606Z,9.10
2022-12-24T19:37:16.317Z,9.20
2022-12-24T19:39:43.083Z,9.20
2022-12-24T19:42:09.926Z,9.30
2022-12-24T19:44:36.635Z,9.30
2022-12-24T19:47:03.440Z,9.30
2022-12-24T19:49:30.224Z,9.30
2022-12-24T19:52:01.206Z,9.40
2022-12-24T19:54:27.862Z,9.40
2022-12-24T19:56:54.447Z,9.40
2022-12-24T19:59:21.119Z,9.40
2022-12-24T20:01:47.905Z,9.50
2022-12-24T20:04:14.998Z,9.50
2022-12-24T20:06:41.614Z,9.50
2022-12-24T20:09:08.569Z,9.50
2022-12-24T20:11:35.302Z,9.50
2022-12-24T20:14:02.757Z,9.50
2022-12-24T20:16:29.990Z,9.50
2022-12-24T20:18:59.387Z,9.60
2022-12-24T20:21:26.392Z,9.50
2022-12-24T20:23:53.219Z,9.50
2022-12-24T20:26:21.470Z,9.60
2022-12-24T20:28:48.208Z,9.60
2022-12-24T20:31:16.684Z,9.60
2022-12-24T20:33:43.706Z,9.60
2022-12-24T20:36:10.768Z,9.60
2022-12-24T20:38:38.157Z,9.60
2022-12-24T20:41:05.240Z,9.60
2022-12-24T20:43:37.267Z,9.60
2022-12-24T20:46:05.561Z,9.50
2022-12-24T20:48:32.398Z,9.50
2022-12-24T20:50:59.236Z,9.40
2022-12-24T20:53:26.889Z,9.40
2022-12-24T20:55:53.643Z,9.40
2022-12-24T20:58:20.357Z,9.40
2022-12-24T21:00:47.545Z,9.40
2022-12-24T21:03:15.158Z,9.40
2022-12-24T21:05:42.034Z,9.40
2022-12-24T21:08:09.813Z,9.40
2022-12-24T21:10:36.685Z,9.30
2022-12-24T21:13:03.402Z,9.30
2022-12-24T21:15:35.149Z,9.30
2022-12-24T21:18:01.908Z,9.30
2022-12-24T21:20:28.582Z,9.30
2022-12-24T21:23:00.806Z,9.20
2022-12-24T21:25:28.258Z,9.20
2022-12-24T21:27:55.647Z,9.10
2022-12-24T21:30:22.714Z,9.10
2022-12-24T21:33:00.512Z,9.10
2022-12-24T21:35:47.566Z,9.10
2022-12-24T21:38:14.292Z,9.00
2022-12-24T21:40:40.927Z,9.00
2022-12-24T21:43:07.550Z,9.00
2022-12-24T21:45:34.438Z,8.90
2022-12-24T21:48:01.108Z,8.90
2022-12-24T21:50:31.850Z,8.90
2022-12-24T21:52:59.367Z,8.90
2022-12-24T21:55:25.979Z,8.80
2022-12-24T21:57:52.908Z,8.80
2022-12-24T22:00:21.412Z,8.80
2022-12-24T22:02:49.810Z,8.80
2022-12-24T22:05:17.044Z,8.80
2022-12-24T22:07:43.801Z,8.80
2022-12-24T22:10:11.241Z,8.80
2022-12-24T22:12:38.175Z,8.80
2022-12-24T22:15:06.746Z,8.80
2022-12-24T22:17:33.522Z,8.80
2022-12-24T22:20:00.448Z,8.90
2022-12-24T22:22:27.489Z,8.90
2022-12-24T22:24:54.383Z,8.90
2022-12-24T22:27:21.765Z,8.90
2022-12-24T22:29:48.771Z,9.00
2022-12-24T22:32:16.254Z,9.00
2022-12-24T22:34:43.103Z,9.00
2022-12-24T22:37:10.251Z,9.00
2022-12-24T22:39:36.860Z,9.10
2022-12-24T22:42:03.584Z,9.10
2022-12-24T22:44:30.500Z,9.10
2022-12-24T22:46:57.583Z,9.10
2022-12-24T22:49:24.946Z,9.10
2022-12-24T22:51:51.775Z,9.10
2022-12-24T22:54:18.439Z,9.10
2022-12-24T22:56:45.048Z,9.10
2022-12-24T22:59:14.627Z,9.10
2022-12-24T23:01:43.447Z,9.10
2022-12-24T23:04:10.753Z,9.10
2022-12-24T23:06:37.543Z,9.10
2022-12-24T23:09:05.124Z,9.10
2022-12-24T23:11:31.777Z,9.10
2022-12-24T23:13:58.470Z,9.10
2022-12-24T23:16:26.345Z,9.20
2022-12-24T23:18:53.408Z,9.20
2022-12-24T23:21:20.221Z,9.20
2022-12-24T23:23:46.825Z,9.20
2022-12-24T23:26:15.465Z,9.20
2022-12-24T23:28:42.281Z,9.20
2022-12-24T23:31:09.010Z,9.30
2022-12-24T23:33:35.754Z,9.30
2022-12-24T23:36:02.465Z,9.30
2022-12-24T23:38:29.211Z,9.30
2022-12-24T23:41:00.092Z,9.30
2022-12-24T23:43:26.863Z,9.40
2022-12-24T23:45:53.587Z,9.40
2022-12-24T23:48:20.883Z,9.40
2022-12-24T23:50:47.572Z,9.40
2022-12-24T23:53:14.581Z,9.50
2022-12-24T23:55:41.406Z,9.50
2022-12-24T23:58:08.282Z,9.50
